Time;durP1;ratioP1;P1;durP2;ratioP2;P2;SDS_P1;SDS_P2;PMS_P1;PMS_P2;Temp;Humidity;BMP_temperature;BMP_pressure;BME280_temperature;BME280_humidity;BME280_pressure;Samples;Min_cycle;Max_cycle;Signal;HPM_P1;HPM_P2
2022/01/21 00:00:34;;;;;;;20.67;16.35;;;;;;;5.53;45.87;94700.97;5116731;28;20187;-67
2022/01/21 00:03:00;;;;;;;9.55;6.78;;;;;;;5.58;44.16;94698.06;5116548;28;20210;-67
2022/01/21 00:05:27;;;;;;;4.95;3.20;;;;;;;5.82;42.60;94702.13;5116650;28;20179;-67
2022/01/21 00:07:54;;;;;;;3.65;2.75;;;;;;;6.02;41.99;94696.66;5116556;28;20199;-68
2022/01/21 00:10:21;;;;;;;4.45;2.90;;;;;;;6.18;41.21;94705.13;5115706;28;20196;-68
2022/01/21 00:12:52;;;;;;;6.80;3.88;;;;;;;6.29;41.37;94708.25;5116135;28;20604;-68
2022/01/21 00:15:18;;;;;;;7.57;6.00;;;;;;;6.36;41.86;94726.91;5116112;28;20199;-68
2022/01/21 00:17:47;;;;;;;9.25;6.32;;;;;;;6.32;42.56;94731.41;5116425;28;20200;-68
2022/01/21 00:31:10;;;;;;;4.07;2.70;;;;;;;6.46;43.93;94730.03;5114819;28;20191;-68
2022/01/21 00:33:38;;;;;;;3.90;2.80;;;;;;;6.48;44.76;94749.66;5115439;28;20187;-68
2022/01/21 00:36:06;;;;;;;4.13;2.58;;;;;;;6.46;44.94;94760.16;5115373;28;20555;-68
2022/01/21 00:38:33;;;;;;;3.88;2.50;;;;;;;6.41;45.13;94771.31;5115134;28;20187;-68
2022/01/21 00:41:03;;;;;;;4.80;3.00;;;;;;;6.38;45.25;94774.72;5114947;28;20214;-68
2022/01/21 00:43:31;;;;;;;5.40;3.10;;;;;;;6.32;46.90;94787.03;5114488;28;20276;-68
2022/01/21 00:45:59;;;;;;;4.90;2.47;;;;;;;6.21;48.25;94788.56;5115929;28;20180;-68
2022/01/21 00:48:26;;;;;;;4.53;2.63;;;;;;;6.19;48.99;94788.06;5115576;28;20547;-68
2022/01/21 00:50:55;;;;;;;3.60;2.65;;;;;;;6.15;50.82;94795.34;5114880;28;20294;-68
2022/01/21 00:53:22;;;;;;;3.88;2.58;;;;;;;6.03;52.32;94791.38;5115822;28;20202;-68
2022/01/21 00:55:48;;;;;;;4.55;2.67;;;;;;;5.93;54.53;94790.97;5115160;28;20191;-68
2022/01/21 00:58:15;;;;;;;4.35;2.85;;;;;;;5.85;56.13;94789.03;5115512;28;20179;-68
2022/01/21 01:00:42;;;;;;;5.47;2.80;;;;;;;5.69;56.63;94796.97;5114791;28;20202;-68
2022/01/21 01:03:09;;;;;;;3.05;2.40;;;;;;;5.63;57.34;94796.38;5115872;28;20214;-68
2022/01/21 01:05:36;;;;;;;3.90;2.90;;;;;;;5.57;58.29;94794.94;5114764;28;20201;-68
2022/01/21 01:08:04;;;;;;;4.72;2.70;;;;;;;5.48;58.30;94794.16;5114860;28;20191;-68
2022/01/21 01:10:45;;;;;;;4.85;3.10;;;;;;;5.40;59.47;94797.72;5115382;28;20184;-68
2022/01/21 01:21:34;;;;;;;3.97;3.25;;;;;;;5.26;59.32;94779.56;5115130;28;20183;-68
2022/01/21 01:27:35;;;;;;;3.63;3.20;;;;;;;5.28;58.62;94784.75;5114526;28;20207;-68
2022/01/21 01:29:34;;;;;;;3.40;3.10;;;;;;;5.35;57.88;94779.56;5115031;28;20587;-68
2022/01/21 01:32:01;;;;;;;3.38;3.08;;;;;;;5.33;58.12;94773.63;5115623;28;20195;-68
2022/01/21 01:34:28;;;;;;;4.13;3.30;;;;;;;5.31;58.01;94775.88;5114703;28;20203;-68
2022/01/21 01:36:58;;;;;;;3.72;2.97;;;;;;;5.27;58.30;94764.81;5115213;28;20180;-68
2022/01/21 01:39:34;;;;;;;3.20;2.85;;;;;;;5.25;58.68;94764.31;5115570;28;20278;-68
2022/01/21 01:42:26;;;;;;;3.17;2.90;;;;;;;5.20;58.90;94761.75;5115215;28;20562;-68
2022/01/21 01:50:35;;;;;;;3.17;2.80;;;;;;;5.10;59.86;94756.63;5114984;28;20176;-67
2022/01/21 01:53:02;;;;;;;3.15;2.85;;;;;;;5.11;60.12;94758.25;5115035;28;20180;-67
2022/01/21 01:55:31;;;;;;;3.28;2.92;;;;;;;5.10;61.02;94761.31;5119229;28;20194;-67
2022/01/21 01:57:57;;;;;;;3.22;2.97;;;;;;;5.05;61.07;94757.63;5118927;28;20258;-68
2022/01/21 02:00:25;;;;;;;3.30;3.00;;;;;;;5.02;62.20;94757.47;5118432;28;20219;-67
2022/01/21 02:02:52;;;;;;;3.40;3.10;;;;;;;4.99;63.11;94760.84;5118034;28;20211;-68
2022/01/21 02:05:18;;;;;;;3.50;3.20;;;;;;;4.92;62.83;94761.34;5118051;28;20207;-68
2022/01/21 02:07:47;;;;;;;3.42;3.13;;;;;;;4.86;64.33;94761.81;5118914;28;20191;-67
2022/01/21 02:10:13;;;;;;;3.28;2.97;;;;;;;4.78;63.64;94763.44;5118020;28;20198;-67
2022/01/21 02:12:42;;;;;;;3.47;3.17;;;;;;;4.72;64.72;94760.09;5118755;28;20188;-68
2022/01/21 02:15:09;;;;;;;3.65;3.33;;;;;;;4.67;65.01;94760.25;5119011;28;20188;-68
2022/01/21 02:23:15;;;;;;;5.45;5.00;;;;;;;4.42;66.90;94763.78;5118064;28;20211;-67
2022/01/21 02:25:41;;;;;;;5.60;5.10;;;;;;;4.37;67.02;94761.22;5118303;28;20187;-68
2022/01/21 02:28:14;;;;;;;5.20;4.80;;;;;;;4.34;66.02;94758.00;5117325;28;20199;-68
2022/01/21 02:30:53;;;;;;;5.60;5.13;;;;;;;4.23;67.04;94756.72;5117534;28;20207;-67
2022/01/21 02:33:20;;;;;;;5.13;4.72;;;;;;;4.15;67.12;94762.97;5118480;28;20176;-67
2022/01/21 02:35:46;;;;;;;5.05;4.65;;;;;;;4.06;67.46;94771.13;5118492;28;20517;-67
2022/01/21 02:38:15;;;;;;;5.15;4.75;;;;;;;4.04;67.87;94764.41;5118428;28;20202;-67
2022/01/21 02:40:42;;;;;;;5.30;4.80;;;;;;;4.01;67.67;94776.75;5118217;28;20199;-67
2022/01/21 02:43:09;;;;;;;5.40;4.90;;;;;;;3.97;68.34;94781.25;5118431;28;20239;-67
2022/01/21 02:45:37;;;;;;;5.13;4.72;;;;;;;3.88;68.57;94787.81;5118360;28;20184;-67
2022/01/21 02:48:05;;;;;;;5.22;4.72;;;;;;;3.80;69.04;94787.47;5117946;28;20244;-67
2022/01/21 02:50:32;;;;;;;5.75;5.30;;;;;;;3.76;69.29;94788.41;5117816;28;20195;-67
2022/01/21 02:53:10;;;;;;;6.10;5.60;;;;;;;3.65;69.47;94787.91;5117722;28;20584;-69
2022/01/21 02:55:39;;;;;;;5.88;5.43;;;;;;;3.67;69.35;94793.84;5118139;28;20183;-69
2022/01/21 02:58:05;;;;;;;5.85;5.38;;;;;;;3.66;69.55;94794.16;5116802;28;20607;-70
2022/01/21 03:00:32;;;;;;;5.97;5.47;;;;;;;3.54;70.14;94798.28;5117561;28;20191;-70
2022/01/21 03:02:59;;;;;;;6.22;5.63;;;;;;;3.43;70.35;94791.50;5117837;28;20214;-70
2022/01/21 03:05:26;;;;;;;6.88;6.28;;;;;;;3.41;70.54;94784.75;5116708;28;20214;-68
2022/01/21 03:07:53;;;;;;;5.65;5.22;;;;;;;3.39;70.85;94790.53;5116951;28;20200;-69
2022/01/21 03:10:19;;;;;;;6.47;5.97;;;;;;;3.35;70.95;94790.34;5117757;28;20192;-69
2022/01/21 03:12:48;;;;;;;5.90;5.40;;;;;;;3.35;70.79;94795.00;5117675;28;20219;-69
2022/01/21 03:15:15;;;;;;;6.20;5.70;;;;;;;3.30;71.07;94804.09;5117486;28;20176;-69
2022/01/21 03:17:41;;;;;;;5.78;5.28;;;;;;;3.24;71.31;94810.81;5117117;28;20203;-69
2022/01/21 03:20:09;;;;;;;6.05;5.55;;;;;;;3.21;71.17;94807.91;5117070;28;20199;-69
2022/01/21 03:22:37;;;;;;;6.30;5.80;;;;;;;3.19;71.68;94812.88;5117538;28;20211;-69
2022/01/21 03:25:04;;;;;;;6.07;5.63;;;;;;;3.17;71.64;94804.22;5117356;28;20647;-69
2022/01/21 03:27:31;;;;;;;5.70;5.30;;;;;;;3.18;71.70;94806.63;5117435;28;20199;-69
2022/01/21 03:30:02;;;;;;;5.82;5.43;;;;;;;3.14;71.68;94809.16;5116364;28;20611;-68
2022/01/21 03:32:29;;;;;;;5.90;5.40;;;;;;;3.14;71.91;94822.78;5117316;28;20194;-69
2022/01/21 03:34:56;;;;;;;6.00;5.40;;;;;;;3.16;71.50;94825.22;5117194;28;20176;-68
2022/01/21 03:37:23;;;;;;;6.28;5.68;;;;;;;3.16;71.62;94830.66;5116033;28;20202;-68
2022/01/21 03:39:50;;;;;;;6.18;5.68;;;;;;;3.14;71.74;94833.69;5117358;28;20187;-68
2022/01/21 03:42:17;;;;;;;5.00;4.50;;;;;;;3.14;71.54;94838.34;5115868;28;20238;-68
2022/01/21 03:44:43;;;;;;;3.25;2.95;;;;;;;3.14;71.22;94841.06;5115930;28;20211;-69
2022/01/21 03:47:12;;;;;;;2.40;2.17;;;;;;;3.09;71.39;94833.81;5116751;28;20180;-69
2022/01/21 03:49:41;;;;;;;2.40;2.20;;;;;;;3.05;71.84;94837.47;5115692;28;20196;-69
2022/01/21 03:52:08;;;;;;;3.10;2.90;;;;;;;3.05;71.77;94832.00;5116676;28;20569;-69
2022/01/21 03:54:35;;;;;;;2.53;2.33;;;;;;;3.00;71.91;94838.41;5115906;28;20196;-69
2022/01/21 03:57:03;;;;;;;2.80;2.60;;;;;;;3.02;71.79;94841.63;5115879;28;20207;-69
2022/01/21 03:59:29;;;;;;;2.05;1.95;;;;;;;3.00;71.69;94845.78;5116466;28;20184;-69
2022/01/21 04:01:57;;;;;;;1.80;1.70;;;;;;;3.00;71.69;94851.22;5116089;28;20198;-69
2022/01/21 04:04:25;;;;;;;1.65;1.55;;;;;;;2.93;71.86;94839.97;5117077;28;20255;-69
2022/01/21 04:06:52;;;;;;;2.25;2.05;;;;;;;2.89;71.88;94845.22;5115700;28;20200;-69
2022/01/21 04:09:18;;;;;;;2.42;2.22;;;;;;;2.88;71.75;94844.41;5116690;28;20605;-69
2022/01/21 04:11:45;;;;;;;2.13;2.03;;;;;;;2.89;72.22;94856.13;5116904;28;20184;-70
2022/01/21 04:14:12;;;;;;;2.25;2.08;;;;;;;2.89;71.96;94859.63;5116602;28;20204;-69
2022/01/21 04:16:39;;;;;;;1.85;1.75;;;;;;;2.89;72.02;94856.13;5115554;28;20200;-69
2022/01/21 04:19:06;;;;;;;1.58;1.48;;;;;;;2.89;72.06;94864.28;5116196;28;20222;-68
2022/01/21 04:21:34;;;;;;;1.42;1.33;;;;;;;2.88;72.21;94871.66;5115936;28;20543;-69
2022/01/21 04:24:02;;;;;;;1.83;1.73;;;;;;;2.88;72.27;94862.69;5116321;28;20204;-69
2022/01/21 04:26:28;;;;;;;1.73;1.63;;;;;;;2.91;72.05;94864.00;5116136;28;20180;-69
2022/01/21 04:28:55;;;;;;;1.80;1.70;;;;;;;2.94;72.15;94876.97;5115071;28;20195;-68
2022/01/21 04:31:22;;;;;;;2.00;1.90;;;;;;;2.98;72.03;94884.25;5115010;28;20203;-68
2022/01/21 04:33:49;;;;;;;1.67;1.58;;;;;;;3.01;71.99;94882.78;5115323;28;20198;-68
2022/01/21 04:36:16;;;;;;;1.60;1.50;;;;;;;3.03;71.68;94889.56;5116125;28;20198;-67
2022/01/21 04:38:44;;;;;;;1.80;1.70;;;;;;;3.08;71.38;94892.16;5115207;28;20521;-67
2022/01/21 04:41:34;;;;;;;1.55;1.45;;;;;;;3.09;71.48;94896.50;5115987;28;20187;-67
2022/01/21 04:49:36;;;;;;;2.60;2.40;;;;;;;3.07;71.37;94906.09;5114687;28;20204;-68
2022/01/21 04:52:03;;;;;;;2.00;1.90;;;;;;;3.06;71.39;94904.50;5115352;28;20203;-68
2022/01/21 04:54:31;;;;;;;1.95;1.85;;;;;;;3.04;71.49;94912.97;5115096;28;20230;-68
2022/01/21 04:56:58;;;;;;;1.40;1.30;;;;;;;3.01;71.78;94921.75;5116181;28;20183;-68
2022/01/21 04:59:25;;;;;;;1.40;1.30;;;;;;;2.99;71.60;94923.19;5115843;28;20195;-67
2022/01/21 05:01:52;;;;;;;1.30;1.30;;;;;;;2.89;71.56;94926.94;5115493;28;20207;-67
2022/01/21 05:04:20;;;;;;;1.60;1.50;;;;;;;2.84;72.31;94927.06;5115967;28;20211;-67
2022/01/21 05:06:47;;;;;;;1.42;1.38;;;;;;;2.83;72.29;94929.00;5115681;28;20195;-67
2022/01/21 05:09:15;;;;;;;1.50;1.40;;;;;;;2.81;72.31;94931.22;5115666;28;20195;-66
2022/01/21 05:11:44;;;;;;;2.40;2.20;;;;;;;2.86;72.32;94928.34;5114960;28;20203;-66
2022/01/21 05:14:13;;;;;;;2.90;2.70;;;;;;;2.83;72.01;94923.53;5115678;28;20180;-69
2022/01/21 05:16:46;;;;;;;3.95;3.55;;;;;;;2.89;71.39;94932.41;5115642;28;20188;-68
2022/01/21 05:19:15;;;;;;;3.58;3.28;;;;;;;2.96;70.88;94938.22;5114678;28;20191;-67
2022/01/21 05:21:42;;;;;;;4.22;3.83;;;;;;;2.88;71.15;94941.69;5115784;28;20236;-66
2022/01/21 05:24:09;;;;;;;4.15;3.85;;;;;;;2.74;71.63;94949.88;5114676;28;20219;-66
2022/01/21 05:26:38;;;;;;;3.40;3.20;;;;;;;2.75;71.76;94962.38;5115043;28;20202;-65
2022/01/21 05:29:07;;;;;;;3.30;3.10;;;;;;;2.74;71.75;94955.34;5117563;28;20188;-67
2022/01/21 05:31:34;;;;;;;3.10;2.90;;;;;;;2.72;71.98;94963.00;5119911;28;20190;-67
2022/01/21 05:34:01;;;;;;;4.18;3.88;;;;;;;2.64;72.20;94974.63;5119918;28;20191;-67
2022/01/21 05:36:27;;;;;;;5.70;5.20;;;;;;;2.61;71.44;94973.31;5119641;28;20184;-69
2022/01/21 05:38:54;;;;;;;4.45;4.10;;;;;;;2.57;71.82;94987.84;5118388;28;20188;-69
2022/01/21 05:41:23;;;;;;;3.38;3.08;;;;;;;2.52;72.27;94991.47;5119168;28;20265;-68
2022/01/21 05:43:59;;;;;;;7.30;6.60;;;;;;;2.55;72.24;94998.25;5119456;28;20277;-68
2022/01/21 05:46:36;;;;;;;5.60;5.10;;;;;;;2.57;71.01;95004.16;5118612;28;20577;-68
2022/01/21 05:49:04;;;;;;;6.88;6.28;;;;;;;2.62;70.24;94996.72;5119107;28;20595;-68
2022/01/21 05:51:31;;;;;;;6.28;5.75;;;;;;;2.63;69.78;95002.97;5118583;28;20214;-68
2022/01/21 05:53:58;;;;;;;5.35;4.95;;;;;;;2.62;69.61;95014.97;5118400;28;20196;-68
2022/01/21 05:56:26;;;;;;;6.20;5.60;;;;;;;2.60;69.25;95017.19;5118421;28;20191;-68
2022/01/21 05:58:54;;;;;;;8.90;8.07;;;;;;;2.60;69.47;95014.47;5118327;28;20206;-68
2022/01/21 06:01:20;;;;;;;8.13;7.45;;;;;;;2.55;69.50;95022.75;5118859;28;20183;-68
2022/01/21 06:03:49;;;;;;;6.63;6.13;;;;;;;2.51;69.10;95028.00;5118176;28;20214;-68
2022/01/21 06:06:16;;;;;;;6.60;6.00;;;;;;;2.49;69.64;95032.13;5118030;28;20204;-68
2022/01/21 06:08:43;;;;;;;5.93;5.32;;;;;;;2.45;69.39;95042.78;5118078;28;20196;-68
2022/01/21 06:11:10;;;;;;;6.40;5.90;;;;;;;2.36;69.54;95042.69;5118212;28;20429;-67
2022/01/21 06:13:37;;;;;;;8.77;7.97;;;;;;;2.38;69.93;95050.56;5119128;28;20748;-70
2022/01/21 06:16:05;;;;;;;7.63;7.00;;;;;;;2.37;70.17;95062.56;5117979;28;20253;-72
2022/01/21 06:18:32;;;;;;;7.20;6.60;;;;;;;2.30;70.29;95056.72;5117824;28;20203;-70
2022/01/21 06:21:00;;;;;;;6.55;6.03;;;;;;;2.26;70.66;95066.59;5117585;28;20198;-69
2022/01/21 06:23:28;;;;;;;6.07;5.57;;;;;;;2.21;71.21;95074.81;5118388;28;20582;-70
2022/01/21 06:25:55;;;;;;;5.57;5.07;;;;;;;2.20;70.81;95076.75;5118778;28;20204;-71
2022/01/21 06:28:22;;;;;;;6.97;4.55;;;;;;;2.22;70.62;95084.63;5117958;28;20592;-70
2022/01/21 06:30:50;;;;;;;3.30;3.05;;;;;;;2.29;69.92;95079.59;5118836;28;20183;-70
2022/01/21 06:33:16;;;;;;;1.88;1.77;;;;;;;2.27;68.26;95088.03;5118353;28;20260;-70
2022/01/21 06:35:43;;;;;;;1.90;1.73;;;;;;;2.22;68.20;95092.78;5117792;28;20191;-70
2022/01/21 06:38:12;;;;;;;1.70;1.60;;;;;;;2.16;67.17;95087.41;5117928;28;20192;-69
2022/01/21 06:40:39;;;;;;;2.00;1.80;;;;;;;2.13;67.57;95096.16;5117333;28;20184;-69
2022/01/21 06:43:06;;;;;;;1.60;1.50;;;;;;;2.08;67.38;95098.19;5118092;28;20237;-70
2022/01/21 06:45:32;;;;;;;1.75;1.50;;;;;;;2.06;67.81;95103.09;5117543;28;20216;-70
2022/01/21 06:48:02;;;;;;;1.90;1.80;;;;;;;1.98;67.42;95114.69;5117989;28;20203;-70
2022/01/21 06:50:29;;;;;;;2.80;1.70;;;;;;;1.92;68.21;95119.38;5118180;28;20435;-67
2022/01/21 06:52:56;;;;;;;2.10;2.00;;;;;;;1.86;68.02;95128.75;5118263;28;20199;-72
2022/01/21 06:55:24;;;;;;;2.20;2.00;;;;;;;1.92;67.80;95130.25;5117989;28;20184;-71
2022/01/21 06:57:51;;;;;;;2.35;2.15;;;;;;;1.94;67.74;95138.94;5117996;28;20522;-70
2022/01/21 07:00:19;;;;;;;2.50;2.30;;;;;;;1.84;67.11;95142.63;5117839;28;20195;-72
2022/01/21 07:02:46;;;;;;;2.60;2.40;;;;;;;1.79;67.57;95145.44;5118160;28;20195;-71
2022/01/21 07:05:13;;;;;;;3.25;2.90;;;;;;;1.77;68.70;95157.69;5118782;28;20234;-71
2022/01/21 07:07:40;;;;;;;2.70;2.50;;;;;;;1.79;68.42;95160.94;5118072;28;20206;-70
2022/01/21 07:10:10;;;;;;;3.63;2.70;;;;;;;1.79;68.64;95159.03;5117188;28;20203;-70
2022/01/21 07:12:39;;;;;;;2.78;2.58;;;;;;;1.84;68.82;95166.31;5118185;28;20188;-71
2022/01/21 07:15:07;;;;;;;3.58;3.03;;;;;;;1.81;68.12;95162.25;5116744;28;20196;-70
2022/01/21 07:17:34;;;;;;;3.90;3.60;;;;;;;1.71;69.25;95170.59;5118081;28;20188;-71
2022/01/21 07:20:00;;;;;;;3.33;2.90;;;;;;;1.67;68.78;95164.09;5117364;28;20203;-70
2022/01/21 07:22:27;;;;;;;4.13;3.72;;;;;;;1.71;68.88;95177.91;5117541;28;20200;-69
2022/01/21 07:24:54;;;;;;;5.03;4.57;;;;;;;1.72;68.94;95184.97;5117726;28;20222;-71
2022/01/21 07:27:21;;;;;;;3.85;3.55;;;;;;;1.74;68.89;95180.84;5117818;28;20599;-71
2022/01/21 07:29:49;;;;;;;3.90;3.60;;;;;;;1.78;68.64;95190.06;5117821;28;20195;-71
2022/01/21 07:32:16;;;;;;;4.47;4.07;;;;;;;1.85;68.50;95186.94;5117481;28;20188;-72
2022/01/21 07:34:43;;;;;;;4.82;4.40;;;;;;;1.80;67.81;95203.34;5117277;28;20176;-72
2022/01/21 07:37:10;;;;;;;4.80;4.40;;;;;;;1.77;68.36;95193.06;5117671;28;20192;-72
2022/01/21 07:39:37;;;;;;;4.90;4.35;;;;;;;1.74;68.88;95208.03;5117199;28;20294;-72
2022/01/21 07:42:04;;;;;;;3.88;3.50;;;;;;;1.70;67.82;95207.00;5117165;28;20324;-72
2022/01/21 07:44:31;;;;;;;3.22;2.92;;;;;;;1.74;68.07;95199.88;5117807;28;20195;-72
2022/01/21 07:46:59;;;;;;;3.83;3.00;;;;;;;1.72;67.53;95209.47;5117590;28;20487;-72
2022/01/21 07:49:26;;;;;;;4.28;3.13;;;;;;;1.71;67.26;95205.09;5117555;28;20198;-71
2022/01/21 07:51:53;;;;;;;3.78;3.47;;;;;;;1.71;67.83;95205.94;5117229;28;20183;-72
2022/01/21 07:54:20;;;;;;;5.50;4.32;;;;;;;1.73;68.09;95216.50;5117926;28;20199;-72
2022/01/21 07:56:46;;;;;;;4.10;3.80;;;;;;;1.67;67.51;95216.59;5116470;28;20269;-72
2022/01/21 07:59:14;;;;;;;4.18;3.78;;;;;;;1.68;67.99;95214.66;5117254;28;20194;-71
2022/01/21 08:01:42;;;;;;;4.03;3.63;;;;;;;1.71;66.85;95216.81;5117456;28;20191;-71
2022/01/21 08:04:10;;;;;;;2.75;2.55;;;;;;;1.70;66.62;95231.47;5117512;28;20211;-71
2022/01/21 08:06:38;;;;;;;2.95;2.63;;;;;;;1.67;66.42;95229.34;5116445;28;20192;-71
2022/01/21 08:09:05;;;;;;;2.67;2.47;;;;;;;1.63;66.32;95222.88;5117035;28;20217;-71
2022/01/21 08:11:32;;;;;;;3.15;2.88;;;;;;;1.71;67.09;95227.69;5117245;28;20175;-71
2022/01/21 08:13:59;;;;;;;3.58;3.15;;;;;;;1.70;66.17;95231.47;5116917;28;20191;-72
2022/01/21 08:16:26;;;;;;;3.40;3.10;;;;;;;1.73;66.32;95238.25;5116912;28;20198;-72
2022/01/21 08:18:54;;;;;;;4.53;3.55;;;;;;;1.76;65.89;95240.41;5116061;28;20207;-72
2022/01/21 08:21:22;;;;;;;5.00;4.50;;;;;;;1.74;67.07;95235.22;5117469;28;20184;-72
2022/01/21 08:23:51;;;;;;;5.40;4.40;;;;;;;1.71;65.52;95244.00;5116056;28;20198;-71
2022/01/21 08:26:23;;;;;;;4.82;4.43;;;;;;;1.71;66.25;95240.44;5115814;28;20211;-71
2022/01/21 08:28:51;;;;;;;6.07;5.45;;;;;;;1.75;66.05;95249.66;5116635;28;20188;-71
2022/01/21 08:31:18;;;;;;;6.65;6.05;;;;;;;1.71;65.60;95254.88;5116413;28;20175;-71
2022/01/21 08:33:45;;;;;;;7.68;6.72;;;;;;;1.74;66.44;95258.91;5115839;28;20511;-71
2022/01/21 08:36:11;;;;;;;5.72;5.22;;;;;;;1.76;65.82;95254.00;5115799;28;20203;-71
2022/01/21 08:38:40;;;;;;;4.60;4.20;;;;;;;1.72;65.65;95251.06;5116743;28;20188;-71
2022/01/21 08:41:07;;;;;;;4.35;3.90;;;;;;;1.72;65.97;95248.34;5116473;28;20180;-71
2022/01/21 08:43:34;;;;;;;3.42;3.13;;;;;;;1.75;65.27;95225.19;5116531;28;20194;-71
2022/01/21 08:46:01;;;;;;;3.05;2.65;;;;;;;1.71;65.01;95222.25;5116392;28;20214;-71
2022/01/21 08:48:27;;;;;;;2.92;2.63;;;;;;;1.72;64.98;95228.50;5115700;28;20203;-71
2022/01/21 08:50:55;;;;;;;3.10;2.90;;;;;;;1.73;64.77;95235.53;5115918;28;20573;-71
2022/01/21 08:53:38;;;;;;;3.40;3.10;;;;;;;1.73;65.85;95241.78;5115634;28;20286;-71
2022/01/21 08:56:09;;;;;;;4.32;4.00;;;;;;;1.69;65.66;95251.63;5115410;28;20198;-71
2022/01/21 08:58:36;;;;;;;4.43;4.03;;;;;;;1.73;66.37;95265.44;5116454;28;20235;-71
2022/01/21 09:01:03;;;;;;;4.20;3.90;;;;;;;1.65;64.94;95264.19;5115691;28;20219;-72
2022/01/21 09:03:30;;;;;;;4.55;3.80;;;;;;;1.66;65.59;95260.38;5115279;28;20202;-71
2022/01/21 09:05:57;;;;;;;4.00;3.60;;;;;;;1.71;65.68;95257.59;5116914;28;20207;-71
2022/01/21 09:08:28;;;;;;;3.85;3.55;;;;;;;1.74;64.80;95250.75;5116517;28;20219;-71
2022/01/21 09:10:55;;;;;;;4.00;3.70;;;;;;;1.76;64.85;95245.84;5115791;28;20199;-71
2022/01/21 09:13:26;;;;;;;3.65;3.35;;;;;;;1.71;64.63;95240.44;5117181;28;20191;-72
2022/01/21 09:15:54;;;;;;;3.72;3.42;;;;;;;1.70;65.09;95231.47;5115990;28;20215;-71
2022/01/21 09:18:21;;;;;;;3.55;3.25;;;;;;;1.67;63.85;95232.91;5115429;28;20207;-71
2022/01/21 09:20:48;;;;;;;4.00;3.70;;;;;;;1.72;65.30;95225.78;5116060;28;20184;-71
2022/01/21 09:23:15;;;;;;;4.40;4.00;;;;;;;1.71;63.61;95221.41;5116445;28;20199;-71
2022/01/21 09:25:42;;;;;;;4.90;4.50;;;;;;;1.78;63.66;95209.09;5115831;28;20210;-71
2022/01/21 09:28:09;;;;;;;4.63;4.25;;;;;;;1.81;64.24;95199.53;5115901;28;20197;-71
2022/01/21 09:30:38;;;;;;;4.53;4.13;;;;;;;1.83;63.81;95203.56;5116027;28;20184;-71
2022/01/21 09:33:05;;;;;;;5.20;4.18;;;;;;;1.92;63.63;95187.38;5115831;28;20373;-70
2022/01/21 09:35:32;;;;;;;6.03;5.43;;;;;;;1.91;64.19;95196.66;5114999;28;20214;-69
2022/01/21 09:37:59;;;;;;;12.02;10.82;;;;;;;1.93;63.94;95197.19;5114837;28;20195;-70
2022/01/21 09:40:31;;;;;;;14.70;13.30;;;;;;;1.99;64.23;95195.19;5115055;28;20214;-67
2022/01/21 09:42:58;;;;;;;8.85;8.05;;;;;;;2.02;62.23;95200.03;5115732;28;20231;-68
2022/01/21 09:45:27;;;;;;;5.70;5.07;;;;;;;2.04;62.70;95198.66;5114999;28;20219;-69
2022/01/21 09:47:58;;;;;;;5.00;4.60;;;;;;;2.07;61.08;95210.81;5115091;28;20778;-68
2022/01/21 09:50:24;;;;;;;5.68;4.82;;;;;;;2.09;62.23;95197.75;5115703;28;20188;-67
2022/01/21 09:52:54;;;;;;;4.95;4.30;;;;;;;2.08;61.63;95183.34;5115366;28;20201;-66
2022/01/21 09:55:22;;;;;;;5.22;4.72;;;;;;;2.15;61.76;95188.41;5115371;28;20233;-66
2022/01/21 09:57:51;;;;;;;4.10;3.70;;;;;;;2.20;60.57;95190.22;5114587;28;20626;-68
2022/01/21 10:00:19;;;;;;;3.78;3.47;;;;;;;2.23;59.70;95184.19;5114497;28;20203;-68
2022/01/21 10:02:46;;;;;;;4.68;4.28;;;;;;;2.11;60.92;95182.75;5115378;28;20215;-68
2022/01/21 10:05:15;;;;;;;5.55;3.97;;;;;;;2.18;61.60;95176.94;5114239;28;20223;-68
2022/01/21 10:07:45;;;;;;;3.90;3.50;;;;;;;2.26;59.39;95187.13;5114385;28;20200;-68
2022/01/21 10:10:12;;;;;;;3.72;3.20;;;;;;;2.30;58.44;95180.00;5115143;28;20258;-68
2022/01/21 10:12:40;;;;;;;3.08;2.80;;;;;;;2.28;58.25;95170.50;5114561;28;20205;-68
2022/01/21 10:15:08;;;;;;;3.15;2.92;;;;;;;2.33;59.22;95170.44;5116332;28;20249;-68
2022/01/21 10:17:35;;;;;;;3.70;3.33;;;;;;;2.38;59.31;95167.59;5118258;28;20200;-68
2022/01/21 10:20:13;;;;;;;4.45;4.05;;;;;;;2.42;58.29;95157.72;5118209;28;20202;-68
2022/01/21 10:22:57;;;;;;;3.60;3.30;;;;;;;2.42;58.91;95161.25;5118766;28;20202;-68
2022/01/21 10:25:24;;;;;;;4.40;4.00;;;;;;;2.39;60.17;95153.69;5118761;28;20235;-68
2022/01/21 10:27:51;;;;;;;5.25;4.75;;;;;;;2.45;59.24;95156.34;5118592;28;20192;-68
2022/01/21 10:30:22;;;;;;;4.40;4.07;;;;;;;2.36;57.17;95154.31;5117945;28;20199;-68
2022/01/21 10:32:48;;;;;;;3.58;3.15;;;;;;;2.36;56.58;95150.75;5118628;28;20184;-70
2022/01/21 10:35:24;;;;;;;2.80;2.58;;;;;;;2.33;55.81;95149.47;5117976;28;20192;-68
2022/01/21 10:37:56;;;;;;;2.97;2.78;;;;;;;2.46;57.62;95149.78;5118107;28;20256;-68
2022/01/21 10:40:23;;;;;;;2.58;2.38;;;;;;;2.49;56.86;95151.91;5118035;28;20214;-68
2022/01/21 10:42:50;;;;;;;3.00;2.80;;;;;;;2.58;56.77;95147.41;5117089;28;20559;-68
2022/01/21 10:45:17;;;;;;;2.60;2.40;;;;;;;2.68;56.30;95139.00;5117879;28;20214;-68
2022/01/21 10:47:49;;;;;;;2.90;2.60;;;;;;;2.65;56.52;95136.88;5117547;28;20608;-68
2022/01/21 10:50:20;;;;;;;3.05;2.67;;;;;;;2.73;57.92;95135.41;5117424;28;20204;-68
2022/01/21 10:52:51;;;;;;;2.65;2.45;;;;;;;2.74;58.79;95142.47;5118171;28;20198;-67
2022/01/21 10:55:30;;;;;;;2.33;2.13;;;;;;;2.76;57.52;95134.78;5117283;28;20196;-68
2022/01/21 10:58:08;;;;;;;2.22;2.03;;;;;;;2.80;58.76;95127.66;5117274;28;20207;-69
2022/01/21 11:00:35;;;;;;;2.03;1.92;;;;;;;2.79;58.85;95129.53;5118020;28;20184;-68
2022/01/21 11:03:12;;;;;;;2.20;2.10;;;;;;;2.80;58.75;95116.75;5117249;28;20219;-67
2022/01/21 11:05:42;;;;;;;2.30;2.10;;;;;;;2.83;57.54;95122.41;5117222;28;20212;-68
2022/01/21 11:08:11;;;;;;;2.63;2.42;;;;;;;2.89;56.47;95123.09;5117087;28;20291;-68
2022/01/21 11:10:48;;;;;;;3.95;3.10;;;;;;;2.88;55.78;95125.00;5117638;28;20246;-68
2022/01/21 11:13:37;;;;;;;4.53;3.20;;;;;;;2.82;58.37;95117.25;5117538;28;20638;-68
2022/01/21 11:16:15;;;;;;;3.40;3.10;;;;;;;2.81;58.09;95123.81;5116925;28;20196;-68
2022/01/21 11:18:57;;;;;;;4.95;4.05;;;;;;;2.75;58.21;95120.34;5116784;28;20206;-68
2022/01/21 11:21:25;;;;;;;4.43;3.80;;;;;;;2.82;58.93;95120.75;5117333;28;20543;-68
2022/01/21 11:24:05;;;;;;;3.60;3.35;;;;;;;2.83;57.84;95119.69;5117692;28;20184;-69
2022/01/21 11:26:33;;;;;;;3.80;3.47;;;;;;;2.89;56.45;95118.44;5115928;28;20207;-69
2022/01/21 11:29:02;;;;;;;3.45;3.10;;;;;;;2.98;59.19;95115.84;5116813;28;20295;-68
2022/01/21 11:31:30;;;;;;;4.40;3.72;;;;;;;3.04;60.06;95106.44;5117670;28;20191;-68
2022/01/21 11:33:57;;;;;;;5.05;4.60;;;;;;;3.08;59.46;95114.81;5116496;28;20188;-71
2022/01/21 11:36:24;;;;;;;4.65;4.15;;;;;;;3.11;59.18;95127.81;5116672;28;20203;-71
2022/01/21 11:38:53;;;;;;;4.53;4.13;;;;;;;3.08;56.46;95122.97;5116537;28;20199;-69
2022/01/21 11:41:20;;;;;;;4.43;3.85;;;;;;;3.08;56.10;95120.25;5116776;28;20208;-69
2022/01/21 11:43:51;;;;;;;5.03;4.30;;;;;;;3.05;56.72;95113.50;5116984;28;20184;-67
2022/01/21 11:46:26;;;;;;;4.55;4.07;;;;;;;3.00;57.18;95107.34;5116418;28;20268;-68
2022/01/21 11:48:55;;;;;;;3.80;3.47;;;;;;;3.00;55.03;95129.94;5116205;28;20191;-68
2022/01/21 11:51:26;;;;;;;4.60;3.72;;;;;;;2.97;54.93;95130.56;5115952;28;20208;-69
2022/01/21 11:53:56;;;;;;;3.10;2.85;;;;;;;2.84;54.81;95124.00;5116353;28;20579;-69
2022/01/21 11:56:42;;;;;;;3.72;3.40;;;;;;;2.88;55.64;95111.41;5116105;28;20531;-69
2022/01/21 11:59:23;;;;;;;3.38;3.08;;;;;;;2.87;55.82;95120.69;5115630;28;20623;-69
2022/01/21 12:01:52;;;;;;;10.32;4.63;;;;;;;2.83;54.00;95119.69;5117025;28;20211;-69
2022/01/21 12:04:41;;;;;;;3.85;3.55;;;;;;;2.74;54.08;95107.84;5116792;28;20191;-69
2022/01/21 12:07:55;;;;;;;3.70;3.40;;;;;;;2.68;55.13;95119.16;5116655;28;20209;-70
2022/01/21 12:10:37;;;;;;;3.90;3.60;;;;;;;2.61;54.88;95122.25;5116848;28;20184;-69
2022/01/21 12:13:17;;;;;;;3.80;3.50;;;;;;;2.52;54.75;95118.63;5116608;28;20176;-67
2022/01/21 12:19:07;;;;;;;4.30;4.00;;;;;;;2.41;55.79;95109.84;5115651;28;20191;-67
2022/01/21 12:21:37;;;;;;;4.45;4.15;;;;;;;2.40;56.18;95100.06;5115541;28;20198;-68
2022/01/21 12:24:04;;;;;;;4.40;4.00;;;;;;;2.38;56.70;95094.91;5116650;28;20193;-67
2022/01/21 12:26:32;;;;;;;5.03;4.65;;;;;;;2.39;57.80;95112.06;5116711;28;20207;-70
2022/01/21 12:29:21;;;;;;;6.03;4.88;;;;;;;2.45;57.78;95101.88;5115707;28;20196;-69
2022/01/21 12:32:00;;;;;;;4.43;4.05;;;;;;;2.44;57.39;95103.00;5116450;28;20210;-67